Time;durP1;ratioP1;P1;durP2;ratioP2;P2;SDS_P1;SDS_P2;PMS_P1;PMS_P2;Temp;Humidity;BMP_temperature;BMP_pressure;BME280_temperature;BME280_humidity;BME280_pressure;Samples;Min_cycle;Max_cycle;Signal;HPM_P1;HPM_P2
2023/05/04 00:00:49;;;;;;;6.75;3.78;;;4.60;99.90;;;;;;5038562;28;20179;-64
2023/05/04 00:03:15;;;;;;;8.45;4.18;;;4.60;99.90;;;;;;5039309;28;20036;-63
2023/05/04 00:05:40;;;;;;;7.65;3.72;;;4.60;99.90;;;;;;5036447;28;20033;-64
2023/05/04 00:08:06;;;;;;;5.38;4.28;;;4.50;99.90;;;;;;5037221;28;20087;-64
2023/05/04 00:10:32;;;;;;;6.35;4.18;;;4.50;99.90;;;;;;5037679;28;20025;-64
2023/05/04 00:12:57;;;;;;;4.65;3.70;;;4.50;99.90;;;;;;5037709;28;20068;-64
2023/05/04 00:15:23;;;;;;;6.90;3.72;;;4.40;99.90;;;;;;5038410;28;20047;-62
2023/05/04 00:17:49;;;;;;;6.78;3.83;;;4.40;99.90;;;;;;5038543;28;20387;-64
2023/05/04 00:20:14;;;;;;;6.60;3.95;;;4.40;99.90;;;;;;5036843;28;20084;-62
2023/05/04 00:22:40;;;;;;;7.15;3.35;;;4.40;99.90;;;;;;5037296;28;20079;-64
2023/05/04 00:25:06;;;;;;;5.30;3.80;;;4.30;99.90;;;;;;5035986;28;20025;-64
2023/05/04 00:27:33;;;;;;;5.78;4.00;;;4.30;99.90;;;;;;5037255;28;20489;-64
2023/05/04 00:29:59;;;;;;;4.72;2.78;;;4.30;99.90;;;;;;5036999;28;20021;-64
2023/05/04 00:32:26;;;;;;;5.57;3.20;;;4.30;99.90;;;;;;5036383;28;20473;-65
2023/05/04 00:34:51;;;;;;;6.32;3.88;;;4.20;99.90;;;;;;5037045;28;20025;-64
2023/05/04 00:37:17;;;;;;;4.88;3.55;;;4.20;99.90;;;;;;5037441;28;20036;-64
2023/05/04 00:39:43;;;;;;;6.38;3.90;;;4.20;99.90;;;;;;5037823;28;20037;-64
2023/05/04 00:42:08;;;;;;;8.20;3.88;;;4.10;99.90;;;;;;5037492;28;20515;-64
2023/05/04 00:44:34;;;;;;;7.22;4.03;;;4.10;99.90;;;;;;5037909;28;20100;-63
2023/05/04 00:47:02;;;;;;;4.57;3.50;;;4.10;99.90;;;;;;5038613;28;20488;-64
2023/05/04 00:49:27;;;;;;;5.25;3.85;;;4.00;99.90;;;;;;5037419;28;20022;-64
2023/05/04 00:51:55;;;;;;;5.95;3.58;;;3.90;99.90;;;;;;5038048;28;20495;-64
2023/05/04 00:54:22;;;;;;;6.95;4.57;;;3.90;99.90;;;;;;5037958;28;20226;-64
2023/05/04 00:56:48;;;;;;;5.97;3.95;;;3.90;99.90;;;;;;5039708;28;20030;-63
2023/05/04 00:59:14;;;;;;;6.72;4.53;;;3.90;99.90;;;;;;5034819;28;20056;-63
2023/05/04 01:01:40;;;;;;;7.22;4.45;;;3.90;99.90;;;;;;5035433;28;20511;-64
2023/05/04 01:04:06;;;;;;;10.73;4.85;;;3.90;99.90;;;;;;5036080;28;20529;-64
2023/05/04 01:06:50;;;;;;;8.73;3.63;;;3.90;99.90;;;;;;5036527;28;20146;-64
2023/05/04 01:09:30;;;;;;;5.50;4.15;;;3.90;99.90;;;;;;5054577;22;20132;-50
2023/05/04 01:12:06;;;;;;;7.15;4.55;;;3.80;99.90;;;;;;5027904;28;20212;-49
2023/05/04 01:14:34;;;;;;;8.05;4.40;;;3.80;99.90;;;;;;5029036;28;20064;-51
2023/05/04 01:17:04;;;;;;;6.35;4.55;;;3.80;99.90;;;;;;5026074;28;20033;-50
2023/05/04 01:19:29;;;;;;;6.03;4.35;;;3.80;99.90;;;;;;5017935;28;20034;-53
2023/05/04 01:21:55;;;;;;;5.10;4.10;;;3.70;99.90;;;;;;4999606;28;20469;-49
2023/05/04 01:24:22;;;;;;;7.47;5.05;;;3.70;99.90;;;;;;5018798;28;20104;-49
2023/05/04 01:26:54;;;;;;;7.88;4.28;;;3.70;99.90;;;;;;5007293;28;20108;-49
2023/05/04 01:29:30;;;;;;;7.22;4.28;;;3.60;99.90;;;;;;5018244;28;20029;-51
2023/05/04 01:32:00;;;;;;;5.40;3.72;;;3.60;99.90;;;;;;5015665;28;20065;-53
2023/05/04 01:34:26;;;;;;;7.57;4.60;;;3.60;99.90;;;;;;5018434;28;20128;-51
2023/05/04 01:36:52;;;;;;;7.63;4.30;;;3.60;99.90;;;;;;5016151;28;20108;-50
2023/05/04 01:39:18;;;;;;;8.98;4.35;;;3.60;99.90;;;;;;5017276;28;20021;-53
2023/05/04 01:41:43;;;;;;;9.98;4.60;;;3.60;99.90;;;;;;5017562;28;20538;-49
2023/05/04 01:44:09;;;;;;;8.48;4.85;;;3.50;99.90;;;;;;5017575;28;20443;-49
2023/05/04 01:46:34;;;;;;;4.65;4.05;;;3.50;99.90;;;;;;5016740;28;20454;-49
2023/05/04 01:49:00;;;;;;;7.97;4.40;;;3.40;99.90;;;;;;4999523;28;20026;-51
2023/05/04 01:51:25;;;;;;;6.95;4.85;;;3.40;99.90;;;;;;5000538;28;20038;-49
2023/05/04 01:53:51;;;;;;;7.10;4.88;;;3.40;99.90;;;;;;5017956;28;20048;-49
2023/05/04 01:56:17;;;;;;;7.45;4.55;;;3.40;99.90;;;;;;5017495;28;20361;-50
2023/05/04 01:58:42;;;;;;;5.95;4.07;;;3.30;99.90;;;;;;5016330;28;20040;-50
2023/05/04 02:01:08;;;;;;;6.85;4.07;;;3.30;99.90;;;;;;5017354;28;20166;-52
2023/05/04 02:03:33;;;;;;;6.00;4.18;;;3.30;99.90;;;;;;4999341;28;20499;-49
2023/05/04 02:05:59;;;;;;;6.13;4.00;;;3.30;99.90;;;;;;5017154;28;20467;-51
2023/05/04 02:08:25;;;;;;;8.20;4.38;;;3.20;99.90;;;;;;5015927;28;20040;-49
2023/05/04 02:10:50;;;;;;;5.05;4.05;;;3.20;99.90;;;;;;5017275;28;20077;-49
2023/05/04 02:13:18;;;;;;;5.28;3.60;;;3.10;99.90;;;;;;5017202;28;20046;-49
2023/05/04 02:15:43;;;;;;;6.03;4.18;;;3.10;99.90;;;;;;5017147;28;20026;-50
2023/05/04 02:18:09;;;;;;;11.07;5.07;;;3.10;99.90;;;;;;5000738;28;20195;-50
2023/05/04 02:20:34;;;;;;;9.52;4.80;;;3.10;99.90;;;;;;5016666;28;20164;-51
2023/05/04 02:23:00;;;;;;;8.65;4.65;;;3.00;99.90;;;;;;5014858;28;20030;-51
2023/05/04 02:25:26;;;;;;;10.52;5.10;;;3.00;99.90;;;;;;5016131;28;20115;-50
2023/05/04 02:27:51;;;;;;;9.60;5.22;;;3.00;99.90;;;;;;5018330;28;20551;-51
2023/05/04 02:30:17;;;;;;;6.80;5.15;;;3.00;99.90;;;;;;5020284;28;20042;-50
2023/05/04 02:32:43;;;;;;;8.05;4.80;;;2.90;99.90;;;;;;5019291;28;20044;-49
2023/05/04 02:35:09;;;;;;;6.43;5.50;;;2.90;99.90;;;;;;5020592;28;20025;-51
2023/05/04 02:37:34;;;;;;;5.70;4.32;;;2.90;99.90;;;;;;5019986;28;20499;-50
2023/05/04 02:40:00;;;;;;;8.00;4.63;;;2.90;99.90;;;;;;5020256;28;20507;-50
2023/05/04 02:42:26;;;;;;;9.65;4.90;;;2.90;99.90;;;;;;5020228;28;20080;-52
2023/05/04 02:44:51;;;;;;;6.75;4.72;;;2.90;99.90;;;;;;5021461;28;20585;-52
2023/05/04 02:47:17;;;;;;;11.10;5.80;;;2.90;99.90;;;;;;5021116;28;20037;-53
2023/05/04 02:49:42;;;;;;;7.72;5.03;;;2.90;99.90;;;;;;5019258;28;20033;-50
2023/05/04 02:52:08;;;;;;;9.13;4.63;;;2.80;99.90;;;;;;5019648;28;20025;-50
2023/05/04 02:54:34;;;;;;;10.27;5.35;;;2.80;99.90;;;;;;5005907;28;20025;-49
2023/05/04 02:56:59;;;;;;;7.03;4.97;;;2.80;99.90;;;;;;5020745;28;20025;-49
2023/05/04 02:59:25;;;;;;;11.20;5.43;;;2.80;99.90;;;;;;5021593;28;20026;-50
2023/05/04 03:01:51;;;;;;;8.00;5.85;;;2.80;99.90;;;;;;5021078;28;20126;-50
2023/05/04 03:04:16;;;;;;;9.02;5.82;;;2.80;99.90;;;;;;5021203;28;20104;-50
2023/05/04 03:06:42;;;;;;;11.85;6.05;;;2.80;99.90;;;;;;5020197;28;20208;-51
2023/05/04 03:09:08;;;;;;;10.00;5.22;;;2.70;99.90;;;;;;5021880;28;20042;-49
2023/05/04 03:11:34;;;;;;;7.05;4.45;;;2.70;99.90;;;;;;5021023;28;20312;-50
2023/05/04 03:14:00;;;;;;;10.15;6.10;;;2.70;99.90;;;;;;5019829;28;20041;-49
2023/05/04 03:16:25;;;;;;;6.68;5.20;;;2.70;99.90;;;;;;5019780;28;20049;-50
2023/05/04 03:18:51;;;;;;;8.88;4.88;;;2.70;99.90;;;;;;5021564;28;20035;-50
2023/05/04 03:21:16;;;;;;;8.45;5.10;;;2.70;99.90;;;;;;5020815;28;20120;-50
2023/05/04 03:23:42;;;;;;;11.00;5.35;;;2.70;99.90;;;;;;5020313;28;20444;-50
2023/05/04 03:26:07;;;;;;;8.07;5.20;;;2.60;99.90;;;;;;5000772;28;20037;-49
2023/05/04 03:28:33;;;;;;;5.95;4.82;;;2.70;99.90;;;;;;5020396;28;20022;-50
2023/05/04 03:30:59;;;;;;;8.23;4.90;;;2.60;99.90;;;;;;5018943;28;20066;-50
2023/05/04 03:33:24;;;;;;;8.45;5.10;;;2.60;99.90;;;;;;5020724;28;20065;-49
2023/05/04 03:35:50;;;;;;;8.80;5.43;;;2.60;99.90;;;;;;5018760;28;20030;-49
2023/05/04 03:38:15;;;;;;;10.52;5.43;;;2.60;99.90;;;;;;5019561;28;20018;-50
2023/05/04 03:40:41;;;;;;;11.95;6.05;;;2.60;99.90;;;;;;5017952;28;20084;-50
2023/05/04 03:43:07;;;;;;;8.77;5.93;;;2.50;99.90;;;;;;5019705;28;20314;-49
2023/05/04 03:45:33;;;;;;;10.68;6.15;;;2.50;99.90;;;;;;5017425;28;20033;-51
2023/05/04 03:47:58;;;;;;;8.32;5.38;;;2.50;99.90;;;;;;5003389;28;20079;-50
2023/05/04 03:50:24;;;;;;;7.22;6.45;;;2.50;99.90;;;;;;5018470;28;20398;-50
2023/05/04 03:52:50;;;;;;;8.40;5.65;;;2.50;99.90;;;;;;5017768;28;20026;-51
2023/05/04 03:55:16;;;;;;;11.10;6.47;;;2.50;99.90;;;;;;5018136;28;20022;-54
2023/05/04 03:57:43;;;;;;;10.70;6.05;;;2.50;99.90;;;;;;5017524;28;20126;-49
2023/05/04 04:00:09;;;;;;;13.32;7.10;;;2.50;99.90;;;;;;5018248;28;20058;-50
2023/05/04 04:02:35;;;;;;;10.52;6.20;;;2.60;99.90;;;;;;5016702;28;20464;-50
2023/05/04 04:05:00;;;;;;;9.00;6.47;;;2.60;99.90;;;;;;5019052;28;20034;-50
2023/05/04 04:07:26;;;;;;;8.02;6.25;;;2.60;99.90;;;;;;5017261;28;20503;-52
2023/05/04 04:09:51;;;;;;;8.68;6.05;;;2.60;99.90;;;;;;5017772;28;20069;-50
2023/05/04 04:12:19;;;;;;;12.60;6.55;;;2.60;99.90;;;;;;5017897;28;20480;-49
2023/05/04 04:14:48;;;;;;;9.82;6.85;;;2.70;99.90;;;;;;5017908;28;20030;-51
2023/05/04 04:17:14;;;;;;;9.65;6.25;;;2.70;99.90;;;;;;5019018;28;20204;-49
2023/05/04 04:19:39;;;;;;;12.27;6.40;;;2.80;99.90;;;;;;5019164;28;20022;-49
2023/05/04 04:22:05;;;;;;;11.77;7.25;;;2.80;99.90;;;;;;5018330;28;20091;-49
2023/05/04 04:24:31;;;;;;;12.50;7.40;;;2.80;99.90;;;;;;5002132;28;20048;-49
2023/05/04 04:26:56;;;;;;;12.80;7.15;;;2.90;99.90;;;;;;5017586;28;20456;-50
2023/05/04 04:29:22;;;;;;;12.95;7.72;;;3.00;99.90;;;;;;5018358;28;20045;-49
2023/05/04 04:31:48;;;;;;;10.93;7.18;;;3.00;99.90;;;;;;5016614;28;20048;-49
2023/05/04 04:34:13;;;;;;;10.35;6.82;;;3.10;99.90;;;;;;5019618;28;20042;-53
2023/05/04 04:36:39;;;;;;;9.93;7.28;;;3.10;99.90;;;;;;5016778;28;20102;-50
2023/05/04 04:39:05;;;;;;;10.32;6.53;;;3.20;99.90;;;;;;5019143;28;20424;-49
2023/05/04 04:41:31;;;;;;;13.80;7.57;;;3.30;99.90;;;;;;5017649;28;20116;-49
2023/05/04 04:43:57;;;;;;;15.55;7.78;;;3.40;99.90;;;;;;5019906;28;20464;-51
2023/05/04 04:46:22;;;;;;;12.45;7.38;;;3.50;99.90;;;;;;5016629;28;20030;-50
2023/05/04 04:48:49;;;;;;;11.88;7.25;;;3.50;99.90;;;;;;5018501;28;20041;-51
2023/05/04 04:51:14;;;;;;;10.25;6.97;;;3.60;99.90;;;;;;5016415;28;20044;-51
2023/05/04 04:53:40;;;;;;;8.20;6.38;;;3.70;99.90;;;;;;5018488;28;20399;-50
2023/05/04 04:56:09;;;;;;;10.15;6.05;;;3.80;99.90;;;;;;5017464;28;20521;-50
2023/05/04 04:58:34;;;;;;;13.35;7.15;;;3.90;99.90;;;;;;5018483;28;20453;-49
2023/05/04 05:01:03;;;;;;;9.85;5.85;;;3.90;99.90;;;;;;5015943;28;20038;-54
2023/05/04 05:03:28;;;;;;;13.10;6.57;;;4.10;99.90;;;;;;5015223;28;20112;-50
2023/05/04 05:05:54;;;;;;;11.05;6.38;;;4.20;99.90;;;;;;5018132;28;20080;-49
2023/05/04 05:08:20;;;;;;;11.82;6.72;;;4.30;99.90;;;;;;5016488;28;20036;-50
2023/05/04 05:10:45;;;;;;;8.02;5.22;;;4.40;99.90;;;;;;5019304;28;20033;-50
2023/05/04 05:13:11;;;;;;;12.43;5.97;;;4.50;99.90;;;;;;5018038;28;20033;-51
2023/05/04 05:15:36;;;;;;;8.48;4.75;;;4.60;99.90;;;;;;5016478;28;20033;-50
2023/05/04 05:18:02;;;;;;;11.00;5.40;;;4.70;99.90;;;;;;5016840;28;20083;-50
2023/05/04 05:20:28;;;;;;;6.93;4.68;;;4.80;99.90;;;;;;5018709;28;20029;-49
2023/05/04 05:22:54;;;;;;;9.77;5.45;;;5.00;99.90;;;;;;5017044;28;20032;-49
2023/05/04 05:25:19;;;;;;;7.22;4.60;;;5.10;99.90;;;;;;5016447;28;20029;-49
2023/05/04 05:27:45;;;;;;;7.85;5.68;;;5.20;99.90;;;;;;5016928;28;20554;-52
2023/05/04 05:30:10;;;;;;;8.52;5.43;;;5.40;99.90;;;;;;5015197;28;20041;-50
2023/05/04 05:32:37;;;;;;;10.00;4.70;;;5.50;99.90;;;;;;5016320;28;20030;-50
2023/05/04 05:35:04;;;;;;;6.65;4.15;;;5.50;99.90;;;;;;5018046;28;20186;-50
2023/05/04 05:37:31;;;;;;;7.43;4.07;;;5.60;99.90;;;;;;5016949;28;20050;-50
2023/05/04 05:39:56;;;;;;;13.98;4.90;;;5.70;99.90;;;;;;5017698;28;20096;-49
2023/05/04 05:42:22;;;;;;;7.63;4.60;;;5.70;99.90;;;;;;5017429;28;20104;-49
2023/05/04 05:44:47;;;;;;;9.55;4.55;;;5.70;99.90;;;;;;5016677;28;20030;-50
2023/05/04 05:47:13;;;;;;;7.07;4.15;;;5.80;99.90;;;;;;5001318;28;20071;-51
2023/05/04 05:49:40;;;;;;;4.88;3.83;;;5.80;99.90;;;;;;4999629;28;20029;-49
2023/05/04 05:52:05;;;;;;;7.90;4.97;;;5.90;99.90;;;;;;5016129;28;20041;-49
2023/05/04 05:54:33;;;;;;;5.43;3.83;;;6.00;99.90;;;;;;5004611;28;20592;-49
2023/05/04 05:56:59;;;;;;;5.80;3.92;;;6.00;99.90;;;;;;5015992;28;20053;-49
2023/05/04 05:59:25;;;;;;;6.95;3.83;;;6.10;99.90;;;;;;5016304;28;20022;-50
2023/05/04 06:01:50;;;;;;;5.97;4.18;;;6.20;99.90;;;;;;4996551;28;20108;-49
2023/05/04 06:04:16;;;;;;;10.48;5.32;;;6.30;99.90;;;;;;5014645;28;20053;-50
2023/05/04 06:06:42;;;;;;;8.18;4.28;;;6.40;99.90;;;;;;5014473;28;20072;-50
2023/05/04 06:09:07;;;;;;;7.10;4.10;;;6.50;99.90;;;;;;5015383;28;20046;-50
2023/05/04 06:11:33;;;;;;;6.80;4.43;;;6.60;99.90;;;;;;5016510;28;20564;-49
2023/05/04 06:13:58;;;;;;;5.90;4.20;;;6.70;99.90;;;;;;5015936;28;20503;-49
2023/05/04 06:16:24;;;;;;;7.43;4.00;;;6.90;99.90;;;;;;5015617;28;20079;-49
2023/05/04 06:18:50;;;;;;;10.43;3.88;;;7.00;99.90;;;;;;5017164;28;20282;-49
2023/05/04 06:21:16;;;;;;;6.80;3.58;;;7.20;99.90;;;;;;5016234;28;20017;-49
2023/05/04 06:23:43;;;;;;;10.88;4.10;;;7.40;99.90;;;;;;5015417;28;20029;-51
2023/05/04 06:26:08;;;;;;;8.55;4.40;;;7.60;99.90;;;;;;5016715;28;20056;-50
2023/05/04 06:28:34;;;;;;;5.95;3.80;;;7.70;99.90;;;;;;5016109;28;20403;-50
2023/05/04 06:31:00;;;;;;;6.95;3.53;;;7.90;99.90;;;;;;5015692;28;20037;-51
2023/05/04 06:33:26;;;;;;;5.05;3.42;;;8.10;99.90;;;;;;5015025;28;20025;-51
2023/05/04 06:35:52;;;;;;;8.13;3.75;;;8.20;99.90;;;;;;5016982;28;20044;-50
2023/05/04 06:38:17;;;;;;;6.70;3.60;;;8.40;99.90;;;;;;5017135;28;20171;-50
2023/05/04 06:40:43;;;;;;;5.10;2.80;;;8.70;99.90;;;;;;5017683;28;20097;-50
2023/05/04 06:43:08;;;;;;;5.28;2.70;;;9.00;99.90;;;;;;5017467;28;20034;-49
2023/05/04 06:45:34;;;;;;;8.52;3.40;;;9.10;99.90;;;;;;5016175;28;20432;-49
2023/05/04 06:48:01;;;;;;;7.95;2.97;;;9.30;99.90;;;;;;5015639;28;20021;-53
2023/05/04 06:50:27;;;;;;;6.60;3.35;;;9.50;99.90;;;;;;5016236;28;20635;-49
2023/05/04 06:53:08;;;;;;;6.57;3.10;;;9.70;99.90;;;;;;5017089;28;20048;-49
2023/05/04 06:55:35;;;;;;;9.18;3.00;;;9.90;99.90;;;;;;5016195;28;20491;-49
2023/05/04 06:58:01;;;;;;;5.82;2.90;;;10.10;99.90;;;;;;5015482;28;20424;-49
2023/05/04 07:00:27;;;;;;;8.77;2.78;;;10.30;99.90;;;;;;5016342;28;20077;-49
2023/05/04 07:02:53;;;;;;;6.38;2.95;;;10.50;99.90;;;;;;5016445;28;20025;-49
2023/05/04 07:05:20;;;;;;;4.57;2.63;;;10.70;99.90;;;;;;5015072;28;20032;-49
2023/05/04 07:07:45;;;;;;;3.90;2.55;;;10.90;99.90;;;;;;5016463;28;20416;-50
2023/05/04 07:10:13;;;;;;;4.85;2.60;;;11.00;99.90;;;;;;5054190;22;20309;-62
2023/05/04 07:12:40;;;;;;;6.85;3.33;;;11.20;99.90;;;;;;5034888;28;20021;-62
2023/05/04 07:15:07;;;;;;;4.55;2.55;;;11.30;99.90;;;;;;5036701;28;20029;-62
2023/05/04 07:17:33;;;;;;;3.88;2.25;;;11.40;99.90;;;;;;5037988;28;20637;-62
2023/05/04 07:20:01;;;;;;;4.53;1.90;;;11.60;99.90;;;;;;5021571;28;20029;-62
2023/05/04 07:22:26;;;;;;;5.97;2.35;;;11.80;99.90;;;;;;5004042;28;20040;-62
2023/05/04 07:24:52;;;;;;;3.58;2.50;;;11.90;99.90;;;;;;5018217;28;20530;-60
2023/05/04 07:27:17;;;;;;;4.82;2.05;;;12.10;99.90;;;;;;5016199;28;20022;-62
2023/05/04 07:29:43;;;;;;;3.38;1.98;;;12.30;99.90;;;;;;5017926;28;20685;-61
2023/05/04 07:32:08;;;;;;;5.55;1.85;;;12.40;99.90;;;;;;5015850;28;20113;-61
2023/05/04 07:34:34;;;;;;;3.85;1.60;;;12.70;99.90;;;;;;5018617;28;20021;-62
2023/05/04 07:37:03;;;;;;;3.67;2.45;;;12.90;99.90;;;;;;5017699;28;20056;-62
2023/05/04 07:39:29;;;;;;;8.68;2.17;;;13.10;99.90;;;;;;5018949;28;20022;-63
2023/05/04 07:41:55;;;;;;;4.97;2.35;;;13.30;99.90;;;;;;5019040;28;20029;-61
2023/05/04 07:44:21;;;;;;;3.40;1.83;;;13.40;99.90;;;;;;5003374;28;20104;-62
2023/05/04 07:46:46;;;;;;;3.80;1.83;;;13.50;99.90;;;;;;5018376;28;20056;-62
2023/05/04 07:49:12;;;;;;;5.68;1.80;;;13.50;99.70;;;;;;5019131;28;20048;-62
2023/05/04 07:51:38;;;;;;;6.63;1.70;;;13.70;99.90;;;;;;5019304;28;20034;-62
2023/05/04 07:54:03;;;;;;;1.77;1.55;;;13.70;98.90;;;;;;5018166;28;20030;-62
2023/05/04 07:56:29;;;;;;;9.77;2.22;;;13.90;98.90;;;;;;5018493;28;20448;-62
2023/05/04 07:58:54;;;;;;;6.10;1.70;;;14.00;98.10;;;;;;5002449;28;20044;-63
2023/05/04 08:01:20;;;;;;;5.00;1.80;;;14.10;98.40;;;;;;5000570;28;20049;-63
2023/05/04 08:03:46;;;;;;;4.40;1.80;;;14.10;97.30;;;;;;5017123;28;20033;-63
2023/05/04 08:06:12;;;;;;;4.72;1.85;;;14.10;97.90;;;;;;5017825;28;20045;-60
2023/05/04 08:08:37;;;;;;;3.78;2.15;;;14.10;98.50;;;;;;5018549;28;20026;-63
2023/05/04 08:11:03;;;;;;;4.78;2.10;;;14.20;97.80;;;;;;5002377;28;20146;-61
2023/05/04 08:13:28;;;;;;;6.68;1.98;;;14.30;98.10;;;;;;5017946;28;20112;-62
2023/05/04 08:15:59;;;;;;;4.35;1.80;;;14.30;96.70;;;;;;5018262;28;20030;-63
2023/05/04 08:18:26;;;;;;;4.82;1.27;;;14.20;97.40;;;;;;5016655;28;20017;-63
2023/05/04 08:20:52;;;;;;;3.78;1.70;;;14.30;96.70;;;;;;5003975;28;20026;-64
2023/05/04 08:23:18;;;;;;;3.65;2.13;;;14.30;96.20;;;;;;5018600;28;20477;-63
2023/05/04 08:25:43;;;;;;;3.22;2.00;;;14.40;97.80;;;;;;5019505;28;20109;-63
2023/05/04 08:28:09;;;;;;;3.40;1.45;;;14.50;98.60;;;;;;5018089;28;20029;-63
2023/05/04 08:30:36;;;;;;;7.68;1.75;;;14.70;97.20;;;;;;5001776;28;20033;-62
2023/05/04 08:33:02;;;;;;;3.63;1.95;;;14.70;97.30;;;;;;5017092;28;20029;-63
2023/05/04 08:35:27;;;;;;;3.50;1.90;;;14.90;96.50;;;;;;5018154;28;20100;-62
2023/05/04 08:37:53;;;;;;;4.13;2.00;;;15.00;96.50;;;;;;5017761;28;20022;-63
2023/05/04 08:40:19;;;;;;;4.72;1.83;;;15.10;95.50;;;;;;5018880;28;20030;-61
2023/05/04 08:42:49;;;;;;;4.68;1.77;;;15.30;96.00;;;;;;5002657;28;20025;-61
2023/05/04 08:45:15;;;;;;;3.97;1.98;;;15.40;95.70;;;;;;5017403;28;20045;-63
2023/05/04 08:47:42;;;;;;;5.25;1.67;;;15.50;95.40;;;;;;5016059;28;20074;-64
2023/05/04 08:50:11;;;;;;;3.42;1.52;;;15.60;94.90;;;;;;5017105;28;20026;-62
2023/05/04 08:52:42;;;;;;;4.88;1.83;;;15.60;95.40;;;;;;5017292;28;20025;-62
2023/05/04 08:55:10;;;;;;;6.10;1.83;;;15.80;95.50;;;;;;5018584;28;20472;-64
2023/05/04 08:57:36;;;;;;;4.80;1.60;;;15.80;94.40;;;;;;5013478;28;20033;-63
2023/05/04 09:00:04;;;;;;;4.35;1.92;;;15.70;94.90;;;;;;5015974;28;20029;-62
2023/05/04 09:02:34;;;;;;;2.42;1.48;;;15.60;94.70;;;;;;5016962;28;20120;-62
2023/05/04 09:05:00;;;;;;;2.83;2.20;;;15.70;94.90;;;;;;5017133;28;20080;-63
2023/05/04 09:07:26;;;;;;;8.30;2.25;;;15.70;95.60;;;;;;5016610;28;20488;-61
2023/05/04 09:09:53;;;;;;;4.30;1.70;;;15.80;95.90;;;;;;5015974;28;20600;-62
2023/05/04 09:12:18;;;;;;;4.15;1.52;;;15.90;94.60;;;;;;5017126;28;20033;-62
2023/05/04 09:14:47;;;;;;;5.18;1.70;;;15.90;93.60;;;;;;5017385;28;20029;-62
2023/05/04 09:17:16;;;;;;;4.28;1.50;;;16.00;93.10;;;;;;5017525;28;20034;-63
2023/05/04 09:19:43;;;;;;;4.22;1.77;;;16.10;94.10;;;;;;5015710;28;20040;-62
2023/05/04 09:22:16;;;;;;;3.50;1.73;;;16.30;94.10;;;;;;5017564;28;20080;-63
2023/05/04 09:24:41;;;;;;;2.08;1.63;;;16.50;93.10;;;;;;5016769;28;20029;-62
2023/05/04 09:27:11;;;;;;;6.30;1.65;;;16.60;93.50;;;;;;4999010;28;20044;-63
2023/05/04 09:29:39;;;;;;;6.47;1.85;;;16.70;94.10;;;;;;5017026;28;20507;-63
2023/05/04 09:32:08;;;;;;;3.63;2.17;;;16.90;93.00;;;;;;5016561;28;20037;-62
2023/05/04 09:34:36;;;;;;;11.00;2.20;;;16.90;91.00;;;;;;5016788;28;20025;-62
2023/05/04 09:37:02;;;;;;;5.53;2.38;;;16.90;91.70;;;;;;5000313;28;20021;-64
2023/05/04 09:39:29;;;;;;;3.22;1.50;;;16.80;91.80;;;;;;5017337;28;20017;-64
2023/05/04 09:41:55;;;;;;;4.60;1.55;;;16.90;91.40;;;;;;4998469;28;20415;-61
2023/05/04 09:44:22;;;;;;;2.28;1.40;;;16.80;91.50;;;;;;5001976;28;20444;-63
2023/05/04 09:46:55;;;;;;;6.95;1.77;;;16.70;89.70;;;;;;5015346;28;20037;-62
2023/05/04 09:49:34;;;;;;;4.43;1.40;;;16.50;90.50;;;;;;5015948;28;20076;-62
2023/05/04 09:52:01;;;;;;;3.70;1.70;;;16.40;90.00;;;;;;5017660;28;20036;-64
2023/05/04 09:54:33;;;;;;;2.85;1.73;;;16.30;89.60;;;;;;5016508;28;20492;-63
2023/05/04 09:57:21;;;;;;;3.55;1.85;;;15.90;91.30;;;;;;5015432;28;20057;-63
2023/05/04 09:59:47;;;;;;;2.45;1.52;;;16.00;91.90;;;;;;5017473;28;20112;-62
2023/05/04 10:02:13;;;;;;;2.58;1.92;;;16.10;91.10;;;;;;5014898;28;20029;-63
2023/05/04 10:04:42;;;;;;;4.45;1.75;;;16.20;90.70;;;;;;5016446;28;20029;-62
2023/05/04 10:07:08;;;;;;;3.78;1.60;;;16.30;92.10;;;;;;5016572;28;20033;-62
2023/05/04 10:09:33;;;;;;;3.30;1.83;;;16.40;92.10;;;;;;5015813;28;20060;-63
2023/05/04 10:12:00;;;;;;;3.30;1.50;;;16.60;91.00;;;;;;5013886;28;20056;-61
2023/05/04 10:14:30;;;;;;;3.63;1.70;;;16.80;89.70;;;;;;4999051;28;20365;-64
2023/05/04 10:17:11;;;;;;;7.50;1.98;;;16.80;90.50;;;;;;5014344;28;20014;-63
2023/05/04 10:19:46;;;;;;;4.93;1.67;;;16.90;91.70;;;;;;5015850;28;20022;-63
2023/05/04 10:22:33;;;;;;;3.77;1.60;;;17.00;90.00;;;;;;5015318;28;20022;-62
2023/05/04 10:25:21;;;;;;;7.50;2.13;;;17.10;90.30;;;;;;5015289;28;20268;-63
2023/05/04 10:28:23;;;;;;;3.25;1.60;;;17.20;88.90;;;;;;5015523;28;20310;-63
2023/05/04 10:30:57;;;;;;;2.88;1.58;;;17.10;90.10;;;;;;5015646;28;20488;-62
2023/05/04 10:33:24;;;;;;;3.03;1.90;;;17.20;90.70;;;;;;4998995;28;20168;-63
2023/05/04 10:35:53;;;;;;;5.13;2.00;;;17.30;90.30;;;;;;5016071;28;20021;-62
2023/05/04 10:38:30;;;;;;;5.35;1.67;;;17.20;90.20;;;;;;5015748;28;20041;-63
2023/05/04 10:40:56;;;;;;;5.10;1.52;;;17.30;89.70;;;;;;5017191;28;20080;-64
2023/05/04 10:43:25;;;;;;;3.00;2.03;;;17.40;90.10;;;;;;5016594;28;20509;-62
2023/05/04 10:45:51;;;;;;;3.90;1.60;;;17.50;89.90;;;;;;5016862;28;20030;-64
2023/05/04 10:48:16;;;;;;;4.32;1.77;;;17.50;87.20;;;;;;5016428;28;20615;-63
2023/05/04 10:50:49;;;;;;;5.85;2.00;;;17.60;89.20;;;;;;5019684;28;20103;-62
2023/05/04 10:53:16;;;;;;;3.50;1.90;;;17.60;88.20;;;;;;5020692;28;20504;-61
2023/05/04 10:55:46;;;;;;;4.82;1.58;;;17.70;89.20;;;;;;5020002;28;20116;-63
2023/05/04 10:58:15;;;;;;;4.85;1.63;;;17.80;88.10;;;;;;5018448;28;20531;-64
2023/05/04 11:00:45;;;;;;;2.83;2.13;;;17.90;89.80;;;;;;5019215;28;20034;-61
2023/05/04 11:03:11;;;;;;;2.28;1.50;;;17.60;83.60;;;;;;5019382;28;20411;-64
2023/05/04 11:05:50;;;;;;;4.55;1.95;;;17.60;86.80;;;;;;5018002;28;20107;-64
2023/05/04 11:08:19;;;;;;;3.78;1.63;;;17.60;85.00;;;;;;5018298;28;20082;-63
2023/05/04 11:11:01;;;;;;;4.05;1.70;;;17.60;87.90;;;;;;5001215;28;20194;-61
2023/05/04 11:13:32;;;;;;;3.15;1.50;;;17.80;87.30;;;;;;5017214;28;20030;-63
2023/05/04 11:15:58;;;;;;;5.10;1.88;;;17.80;85.20;;;;;;5018529;28;20105;-63
2023/05/04 11:18:34;;;;;;;4.05;1.40;;;17.60;84.00;;;;;;5017561;28;20121;-63
2023/05/04 11:21:00;;;;;;;2.53;1.40;;;17.70;87.00;;;;;;5018297;28;20022;-62
2023/05/04 11:23:27;;;;;;;3.90;1.75;;;17.90;87.10;;;;;;5018500;28;20030;-63
2023/05/04 11:25:52;;;;;;;3.28;1.80;;;18.00;84.20;;;;;;5018680;28;20119;-63
2023/05/04 11:28:18;;;;;;;3.92;1.95;;;18.00;86.30;;;;;;5017185;28;20114;-62
2023/05/04 11:30:46;;;;;;;4.38;1.58;;;18.00;85.50;;;;;;5018211;28;20041;-63
2023/05/04 11:33:15;;;;;;;4.43;1.70;;;18.10;84.40;;;;;;5016371;28;20095;-63
2023/05/04 11:35:42;;;;;;;3.58;1.55;;;18.00;82.50;;;;;;5019297;28;20455;-64
2023/05/04 11:38:08;;;;;;;3.63;2.22;;;17.90;83.00;;;;;;5001246;28;20036;-63
2023/05/04 11:40:35;;;;;;;5.63;1.83;;;17.80;83.70;;;;;;5017780;28;20034;-62
2023/05/04 11:43:01;;;;;;;2.22;1.65;;;17.70;86.00;;;;;;5021193;28;20030;-62
2023/05/04 11:45:32;;;;;;;4.80;1.95;;;17.90;86.90;;;;;;5019410;28;20105;-64
2023/05/04 11:47:58;;;;;;;2.67;1.98;;;17.90;83.10;;;;;;5001817;28;20026;-63
2023/05/04 11:50:26;;;;;;;3.42;1.60;;;17.90;85.50;;;;;;5001014;28;20381;-62
2023/05/04 11:53:12;;;;;;;3.30;1.58;;;18.00;84.20;;;;;;5018665;28;20028;-63
2023/05/04 11:55:38;;;;;;;4.57;1.77;;;18.00;82.10;;;;;;5018670;28;20030;-65
2023/05/04 11:58:10;;;;;;;4.45;1.58;;;18.10;81.50;;;;;;5000835;28;20316;-62
2023/05/04 12:00:47;;;;;;;4.45;1.70;;;18.10;83.60;;;;;;5016773;28;20622;-64
2023/05/04 12:03:15;;;;;;;6.00;1.85;;;18.20;80.50;;;;;;5019105;28;20030;-64
2023/05/04 12:05:52;;;;;;;8.23;2.03;;;18.30;81.60;;;;;;5016597;28;20678;-62
2023/05/04 12:08:25;;;;;;;4.85;2.13;;;18.30;84.40;;;;;;5000485;28;20044;-64
2023/05/04 12:11:10;;;;;;;1.80;1.60;;;18.40;83.30;;;;;;5017465;28;20026;-65
2023/05/04 12:13:36;;;;;;;5.30;2.00;;;18.30;81.20;;;;;;5000832;28;20021;-63
2023/05/04 12:16:12;;;;;;;5.28;2.03;;;18.30;82.40;;;;;;5001025;28;20064;-64
2023/05/04 12:18:38;;;;;;;2.35;1.55;;;18.40;80.90;;;;;;5017648;28;20211;-64
2023/05/04 12:21:07;;;;;;;2.72;1.90;;;18.40;81.80;;;;;;5017863;28;20108;-66
2023/05/04 12:23:33;;;;;;;5.82;1.58;;;18.40;79.70;;;;;;5017820;28;20040;-64
2023/05/04 12:25:58;;;;;;;3.53;1.65;;;18.20;81.40;;;;;;5019107;28;20031;-62
2023/05/04 12:28:25;;;;;;;9.20;1.65;;;18.30;83.00;;;;;;5016791;28;20045;-63
2023/05/04 12:30:52;;;;;;;4.35;1.83;;;18.40;81.70;;;;;;5002902;28;20033;-63
2023/05/04 12:33:17;;;;;;;2.65;1.42;;;18.40;80.70;;;;;;5017320;28;20039;-64
2023/05/04 12:35:43;;;;;;;7.10;1.83;;;18.30;81.10;;;;;;5017747;28;20026;-64
2023/05/04 12:38:08;;;;;;;4.05;1.60;;;18.10;79.40;;;;;;5016379;28;20604;-63
2023/05/04 12:40:35;;;;;;;3.38;1.55;;;17.90;82.00;;;;;;5017598;28;20047;-62
2023/05/04 12:43:00;;;;;;;3.28;1.70;;;17.90;82.50;;;;;;5016584;28;20025;-64
2023/05/04 12:45:29;;;;;;;4.70;1.50;;;17.90;80.90;;;;;;5016814;28;20029;-64
2023/05/04 12:47:54;;;;;;;6.15;1.95;;;17.80;79.30;;;;;;5018101;28;20037;-62
2023/05/04 12:50:20;;;;;;;2.67;1.80;;;17.80;82.30;;;;;;5016308;28;20038;-63